createdAt,value
2022-09-29T00:01:08.373Z,11.10
2022-09-29T00:03:53.431Z,11.10
2022-09-29T00:06:38.931Z,11.10
2022-09-29T00:09:24.341Z,11.10
2022-09-29T00:12:09.709Z,11.10
2022-09-29T00:14:55.196Z,11.10
2022-09-29T00:17:49.767Z,11.10
2022-09-29T00:20:55.467Z,11.00
2022-09-29T00:23:40.767Z,11.00
2022-09-29T00:26:26.160Z,10.90
2022-09-29T00:29:11.467Z,10.90
2022-09-29T00:31:56.820Z,10.90
2022-09-29T00:34:42.210Z,10.90
2022-09-29T00:37:28.282Z,10.90
2022-09-29T00:40:13.745Z,10.90
2022-09-29T00:42:58.836Z,10.90
2022-09-29T00:45:44.275Z,11.00
2022-09-29T00:48:32.694Z,11.00
2022-09-29T00:51:19.687Z,11.00
2022-09-29T00:54:06.949Z,11.00
2022-09-29T00:56:52.294Z,11.00
2022-09-29T00:59:51.973Z,11.00
2022-09-29T01:02:46.687Z,11.00
2022-09-29T01:05:38.691Z,11.00
2022-09-29T01:08:45.103Z,11.00
2022-09-29T01:11:31.278Z,11.10
2022-09-29T01:14:16.928Z,11.00
2022-09-29T01:17:02.808Z,10.90
2022-09-29T01:20:22.458Z,10.90
2022-09-29T01:24:01.595Z,11.00
2022-09-29T01:27:11.423Z,11.00
2022-09-29T01:30:14.711Z,10.90
2022-09-29T01:33:02.944Z,10.90
2022-09-29T01:36:12.853Z,10.90
2022-09-29T01:39:22.028Z,10.90
2022-09-29T01:42:22.104Z,11.00
2022-09-29T01:45:22.523Z,11.00
2022-09-29T01:48:12.005Z,11.00
2022-09-29T01:51:03.189Z,11.00
2022-09-29T01:53:54.525Z,11.00
2022-09-29T01:56:56.084Z,11.00
2022-09-29T02:00:11.219Z,11.00
2022-09-29T02:03:28.060Z,11.00
2022-09-29T02:06:29.459Z,11.00
2022-09-29T02:09:20.975Z,10.90
2022-09-29T02:12:08.335Z,10.90
2022-09-29T02:14:55.196Z,10.90
2022-09-29T02:17:45.499Z,10.90
2022-09-29T02:20:31.096Z,11.00
2022-09-29T02:23:16.643Z,10.90
2022-09-29T02:26:03.713Z,10.90
2022-09-29T02:28:49.251Z,10.90
2022-09-29T02:31:37.090Z,10.90
2022-09-29T02:34:23.235Z,10.90
2022-09-29T02:37:33.579Z,10.80
2022-09-29T02:40:37.150Z,10.90
2022-09-29T02:43:46.969Z,10.80
2022-09-29T02:46:59.186Z,10.80
2022-09-29T02:50:27.075Z,10.80
2022-09-29T02:53:36.212Z,10.80
2022-09-29T02:56:59.045Z,10.90
2022-09-29T02:59:58.582Z,10.90
2022-09-29T03:02:44.684Z,10.90
2022-09-29T03:05:30.370Z,10.90
2022-09-29T03:08:15.558Z,10.90
2022-09-29T03:11:01.324Z,10.90
2022-09-29T03:13:46.726Z,10.80
2022-09-29T03:16:32.623Z,10.80
2022-09-29T03:19:17.913Z,10.90
2022-09-29T03:22:03.766Z,10.90
2022-09-29T03:24:48.904Z,10.90
2022-09-29T03:27:36.727Z,10.80
2022-09-29T03:30:23.388Z,10.80
2022-09-29T03:33:08.429Z,10.80
2022-09-29T03:35:53.831Z,10.80
2022-09-29T03:38:39.493Z,10.80
2022-09-29T03:41:24.538Z,10.80
2022-09-29T03:44:09.893Z,10.80
2022-09-29T03:46:55.276Z,10.80
2022-09-29T03:49:40.633Z,10.80
2022-09-29T03:52:26.001Z,10.80
2022-09-29T03:55:11.415Z,10.80
2022-09-29T03:57:56.815Z,10.80
2022-09-29T04:00:42.183Z,10.80
2022-09-29T04:03:28.846Z,10.80
2022-09-29T04:06:14.355Z,10.80
2022-09-29T04:08:59.447Z,10.80
2022-09-29T04:11:44.752Z,10.70
2022-09-29T04:14:30.099Z,10.70
2022-09-29T04:17:15.486Z,10.60
2022-09-29T04:20:01.093Z,10.60
2022-09-29T04:22:46.700Z,10.60
2022-09-29T04:25:32.353Z,10.70
2022-09-29T04:28:17.404Z,10.60
2022-09-29T04:31:03.859Z,10.60
2022-09-29T04:33:48.890Z,10.50
2022-09-29T04:36:34.369Z,10.50
2022-09-29T04:39:19.883Z,10.60
2022-09-29T04:42:05.240Z,10.60
2022-09-29T04:44:50.973Z,10.60
2022-09-29T04:47:37.260Z,10.60
2022-09-29T04:50:23.142Z,10.60
2022-09-29T04:53:10.876Z,10.60
2022-09-29T04:55:56.079Z,10.60
2022-09-29T04:58:41.316Z,10.60
2022-09-29T05:01:27.201Z,10.60
2022-09-29T05:04:13.511Z,10.60
2022-09-29T05:06:58.874Z,10.70
2022-09-29T05:09:44.177Z,10.70
2022-09-29T05:12:29.709Z,10.70
2022-09-29T05:15:15.205Z,10.70
2022-09-29T05:18:03.904Z,10.60
2022-09-29T05:21:05.590Z,10.60
2022-09-29T05:23:54.922Z,10.60
2022-09-29T05:26:40.283Z,10.70
2022-09-29T05:29:25.983Z,10.60
2022-09-29T05:32:12.184Z,10.70
2022-09-29T05:34:57.932Z,10.70
2022-09-29T05:37:43.192Z,10.70
2022-09-29T05:40:28.514Z,10.70
2022-09-29T05:43:13.948Z,10.70
2022-09-29T05:46:04.397Z,10.70
2022-09-29T05:48:51.325Z,10.60
2022-09-29T05:51:36.575Z,10.70
2022-09-29T05:54:22.612Z,10.70
2022-09-29T05:57:08.001Z,10.70
2022-09-29T05:59:53.335Z,10.70
2022-09-29T06:02:38.731Z,10.70
2022-09-29T06:05:24.168Z,10.70
2022-09-29T06:08:10.235Z,10.60
2022-09-29T06:11:01.895Z,10.60
2022-09-29T06:13:49.151Z,10.60
2022-09-29T06:16:34.831Z,10.60
2022-09-29T06:19:20.348Z,10.60
2022-09-29T06:22:05.706Z,10.60
2022-09-29T06:24:51.049Z,10.60
2022-09-29T06:27:36.316Z,10.70
2022-09-29T06:30:21.531Z,11.00
2022-09-29T06:33:06.869Z,11.10
2022-09-29T06:36:10.859Z,11.10
2022-09-29T06:38:57.095Z,11.10
2022-09-29T06:41:48.535Z,11.00
2022-09-29T06:44:33.906Z,10.90
2022-09-29T06:47:19.255Z,10.90
2022-09-29T06:50:08.657Z,10.90
2022-09-29T06:53:03.918Z,10.90
2022-09-29T06:55:56.724Z,11.00
2022-09-29T06:58:41.913Z,10.80
2022-09-29T07:01:27.326Z,10.90
2022-09-29T07:04:12.660Z,10.90
2022-09-29T07:06:57.901Z,10.80
2022-09-29T07:09:43.348Z,10.70
2022-09-29T07:12:28.780Z,10.70
2022-09-29T07:15:14.283Z,10.70
2022-09-29T07:18:00.964Z,10.70
2022-09-29T07:20:46.119Z,10.70
2022-09-29T07:23:32.178Z,10.70
2022-09-29T07:26:18.006Z,10.90
2022-09-29T07:29:03.166Z,11.00
2022-09-29T07:31:52.117Z,10.90
2022-09-29T07:34:38.200Z,10.80
2022-09-29T07:37:24.353Z,10.80
2022-09-29T07:40:09.742Z,11.00
2022-09-29T07:42:55.228Z,11.20
2022-09-29T07:45:49.699Z,11.20
2022-09-29T07:48:36.415Z,11.40
2022-09-29T07:51:21.996Z,11.30
2022-09-29T07:54:07.916Z,11.30
2022-09-29T07:56:53.062Z,11.30
2022-09-29T07:59:43.991Z,11.30
2022-09-29T08:02:32.576Z,11.40
2022-09-29T08:05:18.063Z,11.60
2022-09-29T08:08:04.346Z,11.60
2022-09-29T08:10:53.661Z,11.60
2022-09-29T08:13:39.963Z,11.60
2022-09-29T08:16:25.955Z,11.80
2022-09-29T08:19:11.603Z,11.70
2022-09-29T08:21:56.824Z,11.60
2022-09-29T08:24:42.838Z,11.40
2022-09-29T08:27:29.211Z,11.40
2022-09-29T08:30:14.641Z,11.50
2022-09-29T08:32:59.723Z,11.70
2022-09-29T08:35:44.941Z,11.80
2022-09-29T08:38:32.065Z,11.90
2022-09-29T08:41:44.690Z,12.00
2022-09-29T08:44:41.014Z,12.00
2022-09-29T08:47:45.542Z,12.10
2022-09-29T08:50:37.432Z,12.10
2022-09-29T08:53:28.988Z,12.10
2022-09-29T08:56:17.611Z,12.20
2022-09-29T08:59:02.812Z,12.20
2022-09-29T09:02:10.263Z,12.40
2022-09-29T09:05:25.971Z,12.40
2022-09-29T09:08:56.355Z,12.50
2022-09-29T09:12:06.251Z,12.70
2022-09-29T09:15:12.784Z,12.90
2022-09-29T09:18:20.292Z,13.00
2022-09-29T09:21:09.498Z,13.10
2022-09-29T09:24:00.678Z,13.20
2022-09-29T09:26:47.210Z,13.20
2022-09-29T09:29:40.117Z,13.40
2022-09-29T09:32:32.248Z,13.50
2022-09-29T09:35:34.143Z,13.50
2022-09-29T09:38:25.943Z,13.70
2022-09-29T09:41:15.715Z,13.80
2022-09-29T09:44:25.525Z,14.00
2022-09-29T09:47:24.882Z,14.10
2022-09-29T09:50:25.151Z,14.30
2022-09-29T09:53:16.158Z,14.50
2022-09-29T09:56:37.230Z,14.70
2022-09-29T10:00:11.948Z,14.80
2022-09-29T10:02:58.270Z,15.00
2022-09-29T10:05:45.742Z,15.10
2022-09-29T10:08:39.403Z,15.20
2022-09-29T10:11:31.703Z,15.30
2022-09-29T10:14:26.178Z,15.30
2022-09-29T10:17:14.271Z,15.50
2022-09-29T10:20:03.827Z,15.60
2022-09-29T10:22:51.760Z,15.90
2022-09-29T10:25:37.512Z,15.80
2022-09-29T10:28:24.411Z,15.90
2022-09-29T10:31:22.933Z,15.90
2022-09-29T10:34:24.223Z,15.70
2022-09-29T10:37:20.759Z,15.60
2022-09-29T10:40:08.765Z,15.40
2022-09-29T10:42:56.702Z,15.50
2022-09-29T10:45:48.246Z,15.80
2022-09-29T10:48:33.517Z,16.10
2022-09-29T10:51:24.012Z,16.40
2022-09-29T10:54:15.510Z,16.70
2022-09-29T10:57:11.295Z,16.70
2022-09-29T10:59:58.010Z,16.90
2022-09-29T11:02:43.923Z,16.90
2022-09-29T11:05:29.554Z,16.80
2022-09-29T11:08:15.678Z,16.90
2022-09-29T11:11:21.513Z,17.00
2022-09-29T11:14:49.803Z,17.00
2022-09-29T11:17:38.735Z,16.70
2022-09-29T11:20:32.616Z,16.20
2022-09-29T11:23:47.676Z,16.00
2022-09-29T11:26:57.286Z,16.00
2022-09-29T11:30:03.584Z,15.90
2022-09-29T11:33:20.928Z,15.80
2022-09-29T11:36:31.638Z,15.50
2022-09-29T11:39:48.140Z,15.00
2022-09-29T11:42:39.357Z,14.70
2022-09-29T11:45:45.111Z,14.60
2022-09-29T11:48:47.419Z,14.50
2022-09-29T11:52:03.633Z,14.40
2022-09-29T11:55:00.679Z,14.20
2022-09-29T11:58:00.192Z,14.00
2022-09-29T12:01:03.969Z,14.00
2022-09-29T12:04:22.763Z,13.90
2022-09-29T12:07:38.701Z,13.90
2022-09-29T12:10:52.274Z,14.10
2022-09-29T12:13:46.892Z,14.20
2022-09-29T12:16:39.334Z,14.10
2022-09-29T12:19:28.975Z,14.10
2022-09-29T12:22:19.313Z,14.30
2022-09-29T12:25:05.712Z,14.50
2022-09-29T12:27:55.368Z,14.60
2022-09-29T12:31:01.763Z,14.60
2022-09-29T12:33:56.293Z,14.70
2022-09-29T12:36:53.530Z,14.70
2022-09-29T12:39:56.328Z,14.60
2022-09-29T12:43:02.420Z,14.70
2022-09-29T12:46:09.407Z,14.80
2022-09-29T12:49:18.917Z,14.80
2022-09-29T12:52:11.480Z,14.60
2022-09-29T12:55:01.978Z,14.50
2022-09-29T12:57:50.063Z,14.40
2022-09-29T13:00:39.011Z,14.50
2022-09-29T13:03:48.287Z,14.40
2022-09-29T13:06:52.039Z,14.20
2022-09-29T13:10:16.894Z,14.20
2022-09-29T13:13:16.649Z,14.50
2022-09-29T13:16:19.607Z,14.60
2022-09-29T13:19:34.139Z,14.60
2022-09-29T13:22:50.174Z,14.80
2022-09-29T13:26:01.554Z,14.80
2022-09-29T13:29:02.946Z,14.90
2022-09-29T13:31:48.785Z,14.90
2022-09-29T13:34:36.832Z,14.90
2022-09-29T13:37:25.128Z,15.00
2022-09-29T13:40:19.307Z,15.00
2022-09-29T13:43:07.825Z,15.00
2022-09-29T13:45:53.011Z,15.00
2022-09-29T13:48:47.679Z,15.10
2022-09-29T13:52:16.569Z,15.10
2022-09-29T13:55:40.184Z,15.10
2022-09-29T13:58:26.323Z,15.10
2022-09-29T14:01:12.775Z,15.20
2022-09-29T14:03:59.126Z,15.20
2022-09-29T14:06:47.704Z,15.20
2022-09-29T14:09:39.894Z,15.20
2022-09-29T14:12:27.206Z,15.20
2022-09-29T14:15:17.912Z,15.20
2022-09-29T14:18:14.423Z,15.20
2022-09-29T14:21:10.218Z,15.20
2022-09-29T14:23:56.209Z,15.10
2022-09-29T14:26:52.397Z,15.10
2022-09-29T14:29:42.876Z,15.10
2022-09-29T14:32:42.501Z,15.10
2022-09-29T14:35:27.838Z,15.20
2022-09-29T14:38:20.147Z,15.10
2022-09-29T14:41:08.238Z,15.10
2022-09-29T14:43:58.156Z,15.10
2022-09-29T14:47:29.824Z,15.10
2022-09-29T14:51:07.031Z,15.10
2022-09-29T14:54:15.431Z,15.20
2022-09-29T14:57:19.882Z,15.20
2022-09-29T15:00:18.742Z,15.20
2022-09-29T15:03:26.474Z,15.20
2022-09-29T15:06:21.750Z,15.20
2022-09-29T15:09:20.198Z,15.10
2022-09-29T15:12:16.318Z,15.00
2022-09-29T15:15:02.501Z,15.00
2022-09-29T15:18:01.127Z,15.10
2022-09-29T15:21:38.068Z,15.10
2022-09-29T15:24:39.647Z,15.00
2022-09-29T15:27:24.811Z,15.00
2022-09-29T15:30:19.512Z,14.90
2022-09-29T15:33:16.585Z,14.90
2022-09-29T15:36:26.487Z,14.80
2022-09-29T15:39:40.701Z,14.90
2022-09-29T15:42:27.728Z,14.80
2022-09-29T15:45:19.733Z,14.80
2022-09-29T15:48:06.573Z,14.70
2022-09-29T15:50:55.464Z,14.70
2022-09-29T15:53:41.006Z,14.80
2022-09-29T15:56:29.813Z,14.70
2022-09-29T15:59:20.568Z,14.70
2022-09-29T16:02:07.911Z,14.70
2022-09-29T16:04:56.532Z,14.70
2022-09-29T16:07:53.630Z,14.70
2022-09-29T16:10:48.426Z,14.60
2022-09-29T16:13:40.796Z,14.70
2022-09-29T16:16:32.003Z,14.60
2022-09-29T16:19:28.124Z,14.60
2022-09-29T16:22:20.919Z,14.60
2022-09-29T16:25:27.016Z,14.50
2022-09-29T16:28:27.613Z,14.50
2022-09-29T16:31:27.131Z,14.50
2022-09-29T16:34:21.667Z,14.40
2022-09-29T16:37:17.713Z,14.40
2022-09-29T16:40:02.974Z,14.40
2022-09-29T16:42:53.292Z,14.30
2022-09-29T16:45:39.754Z,14.20
2022-09-29T16:48:27.304Z,14.00
2022-09-29T16:51:39.799Z,13.90
2022-09-29T16:54:31.927Z,13.80
2022-09-29T16:57:31.027Z,13.70
2022-09-29T17:00:17.911Z,13.60
2022-09-29T17:03:05.613Z,13.50
2022-09-29T17:05:51.526Z,13.30
2022-09-29T17:08:36.776Z,13.30
2022-09-29T17:11:22.243Z,13.40
2022-09-29T17:14:11.400Z,13.60
2022-09-29T17:16:57.518Z,13.70
2022-09-29T17:19:42.779Z,13.70
2022-09-29T17:22:30.181Z,13.70
2022-09-29T17:25:15.684Z,13.60
2022-09-29T17:28:14.950Z,13.60
2022-09-29T17:31:00.919Z,13.50
2022-09-29T17:33:46.258Z,13.50
2022-09-29T17:36:31.577Z,13.40
2022-09-29T17:39:17.080Z,13.50
2022-09-29T17:42:02.365Z,13.50
2022-09-29T17:44:48.107Z,13.40
2022-09-29T17:47:37.020Z,13.40
2022-09-29T17:50:36.627Z,13.40
2022-09-29T17:53:26.255Z,13.40
2022-09-29T17:56:28.428Z,13.40
2022-09-29T17:59:14.247Z,13.40
2022-09-29T18:01:59.721Z,13.40
2022-09-29T18:04:48.374Z,13.40
2022-09-29T18:07:33.775Z,13.40
2022-09-29T18:10:37.955Z,13.30
2022-09-29T18:13:25.332Z,13.30
2022-09-29T18:16:16.699Z,13.30
2022-09-29T18:19:02.321Z,13.20
2022-09-29T18:21:47.410Z,13.20
2022-09-29T18:24:33.865Z,13.30
2022-09-29T18:27:19.223Z,13.30
2022-09-29T18:30:18.515Z,13.30
2022-09-29T18:33:03.963Z,13.20
2022-09-29T18:35:53.785Z,13.20
2022-09-29T18:38:39.188Z,13.20
2022-09-29T18:41:24.932Z,13.10
2022-09-29T18:44:20.439Z,13.10
2022-09-29T18:47:05.787Z,13.00
2022-09-29T18:49:51.615Z,13.10
2022-09-29T18:52:36.980Z,13.10
2022-09-29T18:55:25.416Z,13.00
2022-09-29T18:58:16.071Z,13.10
2022-09-29T19:01:02.518Z,13.00
2022-09-29T19:03:48.179Z,13.00
2022-09-29T19:06:33.370Z,12.90
2022-09-29T19:09:18.735Z,13.00
2022-09-29T19:12:04.150Z,13.00
2022-09-29T19:14:49.589Z,13.00
2022-09-29T19:17:34.933Z,12.90
2022-09-29T19:20:20.731Z,13.00
2022-09-29T19:23:05.884Z,13.00
2022-09-29T19:25:52.627Z,13.10
2022-09-29T19:28:38.862Z,13.00
2022-09-29T19:31:24.433Z,13.10
2022-09-29T19:34:09.767Z,13.00
2022-09-29T19:36:54.868Z,13.00
2022-09-29T19:39:44.761Z,13.00
2022-09-29T19:42:31.927Z,13.00
2022-09-29T19:45:17.705Z,13.00
2022-09-29T19:48:08.320Z,12.90
2022-09-29T19:51:17.147Z,12.90
2022-09-29T19:54:10.804Z,13.20
2022-09-29T19:56:59.583Z,12.90
2022-09-29T19:59:45.065Z,12.90
2022-09-29T20:02:30.524Z,12.90
2022-09-29T20:05:15.878Z,12.90
2022-09-29T20:08:02.473Z,12.90
2022-09-29T20:10:47.653Z,12.90
2022-09-29T20:13:32.860Z,12.80
2022-09-29T20:16:18.267Z,12.80
2022-09-29T20:19:05.400Z,12.80
2022-09-29T20:21:52.650Z,12.90
2022-09-29T20:24:37.756Z,12.90
2022-09-29T20:27:23.130Z,12.80
2022-09-29T20:30:09.290Z,12.80
2022-09-29T20:32:54.377Z,12.80
2022-09-29T20:35:40.258Z,12.80
2022-09-29T20:38:25.543Z,12.80
2022-09-29T20:41:11.086Z,12.80
2022-09-29T20:43:57.812Z,12.80
2022-09-29T20:46:43.793Z,12.80
2022-09-29T20:49:28.942Z,12.70
2022-09-29T20:52:14.310Z,12.80
2022-09-29T20:55:02.314Z,12.80
2022-09-29T20:57:48.617Z,12.70
2022-09-29T21:00:33.749Z,12.70
2022-09-29T21:03:19.123Z,12.70
2022-09-29T21:06:05.237Z,12.70
2022-09-29T21:08:50.636Z,12.70
2022-09-29T21:11:40.142Z,12.70
2022-09-29T21:14:27.838Z,12.60
2022-09-29T21:17:13.780Z,12.70
2022-09-29T21:20:01.185Z,12.70
2022-09-29T21:22:46.848Z,12.70
2022-09-29T21:25:32.230Z,12.70
2022-09-29T21:28:17.783Z,12.70
2022-09-29T21:31:11.979Z,12.70
2022-09-29T21:34:00.664Z,12.70
2022-09-29T21:36:46.163Z,12.70
2022-09-29T21:39:31.466Z,12.60
2022-09-29T21:42:16.891Z,12.60
2022-09-29T21:45:02.445Z,12.60
2022-09-29T21:48:06.178Z,12.60
2022-09-29T21:50:51.594Z,12.20
2022-09-29T21:53:38.647Z,12.40
2022-09-29T21:56:27.180Z,12.50
2022-09-29T21:59:14.574Z,12.60
2022-09-29T22:02:00.910Z,12.60
2022-09-29T22:04:46.156Z,12.60
2022-09-29T22:07:31.692Z,12.50
2022-09-29T22:10:17.094Z,12.40
2022-09-29T22:13:02.371Z,12.50
2022-09-29T22:15:47.893Z,12.50
2022-09-29T22:18:42.195Z,12.50
2022-09-29T22:21:28.175Z,12.60
2022-09-29T22:24:13.744Z,12.60
2022-09-29T22:26:58.881Z,12.60
2022-09-29T22:29:44.099Z,12.60
2022-09-29T22:32:29.740Z,12.50
2022-09-29T22:35:15.998Z,12.40
2022-09-29T22:38:02.134Z,12.50
2022-09-29T22:40:47.319Z,12.50
2022-09-29T22:43:32.763Z,12.50
2022-09-29T22:46:18.128Z,12.50
2022-09-29T22:49:03.856Z,12.50
2022-09-29T22:51:49.143Z,12.50
2022-09-29T22:54:34.390Z,12.50
2022-09-29T22:57:19.714Z,12.50
2022-09-29T23:00:05.587Z,12.50
2022-09-29T23:02:50.916Z,12.50
2022-09-29T23:05:37.179Z,12.50
2022-09-29T23:08:24.282Z,12.50
2022-09-29T23:11:17.472Z,12.50
2022-09-29T23:14:03.534Z,12.60
2022-09-29T23:16:48.938Z,12.50
2022-09-29T23:19:34.236Z,12.50
2022-09-29T23:22:19.375Z,12.60
2022-09-29T23:25:06.121Z,12.50
2022-09-29T23:27:51.451Z,12.50
2022-09-29T23:30:36.653Z,12.50
2022-09-29T23:33:22.366Z,12.50
2022-09-29T23:36:15.878Z,12.50
2022-09-29T23:39:10.342Z,12.60
2022-09-29T23:41:55.891Z,12.50
2022-09-29T23:44:41.036Z,12.60
2022-09-29T23:47:27.170Z,12.50
2022-09-29T23:50:13.323Z,12.50
2022-09-29T23:53:00.135Z,12.50
2022-09-29T23:55:45.186Z,12.40
2022-09-29T23:58:30.597Z,12.40
